BEL26C KMCO-TXKF
Flight info
| Callsign | BEL26C |
|---|---|
| Flight time | 2h 9m |
| Altitude | 37000 |
| Route | MZULO3 LENDS M202 ADOOR M203 SNAGY/M077F370 M203 PADRK M326 JIMAC POPOP1 |
| Aircraft | A320/M-SDE3FGHIRWY/LB1 |
Departure
| Time | 2026-04-26 06:52 |
|---|---|
| Airport | Orlando International Airport (KMCO) |
Arrival
| Time | 2026-04-26 09:02 |
|---|---|
| Airport | L.F. Wade International Airport (TXKF) |
| Time | Latitude | Longitude | Altitude | Speed | Heading |
|---|---|---|---|---|---|
| 2026-04-26 06:21 | 28.42571 | -81.31544 | 102 ft | 0 kts | 36° |
| 2026-04-26 06:41 | 28.42567 | -81.31547 | 102 ft | 4 kts | 36° |
| 2026-04-26 06:41 | 28.42544 | -81.31564 | 101 ft | 4 kts | 28° |
| 2026-04-26 06:41 | 28.42520 | -81.31576 | 101 ft | 4 kts | 7° |
| 2026-04-26 06:42 | 28.42498 | -81.31573 | 100 ft | 1 kts | 315° |
| 2026-04-26 06:42 | 28.42498 | -81.31572 | 100 ft | 0 kts | 314° |
| 2026-04-26 06:45 | 28.42503 | -81.31578 | 100 ft | 4 kts | 314° |
| 2026-04-26 06:45 | 28.42532 | -81.31605 | 101 ft | 5 kts | 327° |
| 2026-04-26 06:45 | 28.42560 | -81.31615 | 102 ft | 5 kts | 346° |
| 2026-04-26 06:46 | 28.42617 | -81.31629 | 102 ft | 12 kts | 348° |
| 2026-04-26 06:46 | 28.42708 | -81.31653 | 102 ft | 13 kts | 347° |
| 2026-04-26 06:46 | 28.42799 | -81.31675 | 102 ft | 14 kts | 348° |
| 2026-04-26 06:46 | 28.42905 | -81.31706 | 102 ft | 16 kts | 332° |
| 2026-04-26 06:47 | 28.42981 | -81.31807 | 102 ft | 17 kts | 303° |
| 2026-04-26 06:47 | 28.43049 | -81.31925 | 103 ft | 19 kts | 303° |
| 2026-04-26 06:47 | 28.43138 | -81.31995 | 101 ft | 13 kts | 5° |
| 2026-04-26 06:47 | 28.43232 | -81.31997 | 101 ft | 14 kts | 360° |
| 2026-04-26 06:48 | 28.43342 | -81.31999 | 101 ft | 18 kts | 359° |
| 2026-04-26 06:48 | 28.43473 | -81.32001 | 103 ft | 20 kts | 360° |
| 2026-04-26 06:48 | 28.43617 | -81.32000 | 106 ft | 22 kts | 359° |
| 2026-04-26 06:48 | 28.43773 | -81.32004 | 108 ft | 15 kts | 360° |
| 2026-04-26 06:49 | 28.43837 | -81.32003 | 109 ft | 10 kts | 359° |
| 2026-04-26 06:49 | 28.43931 | -81.32004 | 110 ft | 17 kts | 359° |
| 2026-04-26 06:49 | 28.44078 | -81.32007 | 110 ft | 25 kts | 359° |
| 2026-04-26 06:49 | 28.44222 | -81.32009 | 108 ft | 20 kts | 359° |
| 2026-04-26 06:50 | 28.44370 | -81.32010 | 107 ft | 22 kts | 360° |
| 2026-04-26 06:50 | 28.44531 | -81.32011 | 104 ft | 25 kts | 359° |
| 2026-04-26 06:50 | 28.44674 | -81.32015 | 102 ft | 16 kts | 351° |
| 2026-04-26 06:50 | 28.44713 | -81.32083 | 102 ft | 10 kts | 273° |
| 2026-04-26 06:51 | 28.44714 | -81.32152 | 103 ft | 8 kts | 270° |
| 2026-04-26 06:51 | 28.44633 | -81.32227 | 104 ft | 10 kts | 179° |
| 2026-04-26 06:51 | 28.44426 | -81.32227 | 105 ft | 62 kts | 180° |
| 2026-04-26 06:52 | 28.43770 | -81.32220 | 110 ft | 124 kts | 179° |
| 2026-04-26 06:52 | 28.42727 | -81.32211 | 116 ft | 172 kts | 180° |
| 2026-04-26 06:52 | 28.41519 | -81.32190 | 692 ft | 176 kts | 178° |
| 2026-04-26 06:52 | 28.40287 | -81.32121 | 1427 ft | 177 kts | 178° |
| 2026-04-26 06:53 | 28.39093 | -81.31813 | 2116 ft | 180 kts | 152° |
| 2026-04-26 06:53 | 28.38154 | -81.30837 | 2684 ft | 187 kts | 132° |
| 2026-04-26 06:53 | 28.37292 | -81.29737 | 3311 ft | 188 kts | 134° |
| 2026-04-26 06:53 | 28.36358 | -81.28592 | 3635 ft | 208 kts | 135° |
| 2026-04-26 06:54 | 28.35316 | -81.27328 | 3900 ft | 231 kts | 135° |
| 2026-04-26 06:54 | 28.34244 | -81.25840 | 4231 ft | 258 kts | 118° |
| 2026-04-26 06:54 | 28.33923 | -81.23779 | 4765 ft | 278 kts | 83° |
| 2026-04-26 06:54 | 28.34450 | -81.21641 | 5548 ft | 285 kts | 68° |
| 2026-04-26 06:55 | 28.35284 | -81.19587 | 6392 ft | 289 kts | 63° |
| 2026-04-26 06:55 | 28.36187 | -81.17533 | 7206 ft | 293 kts | 64° |
| 2026-04-26 06:55 | 28.37062 | -81.15430 | 8046 ft | 296 kts | 65° |
| 2026-04-26 06:55 | 28.37882 | -81.13270 | 8895 ft | 299 kts | 67° |
| 2026-04-26 06:56 | 28.38655 | -81.11061 | 9730 ft | 303 kts | 68° |
| 2026-04-26 06:56 | 28.39157 | -81.09547 | 10240 ft | 306 kts | 69° |
| 2026-04-26 06:56 | 28.40170 | -81.06390 | 10594 ft | 337 kts | 70° |
| 2026-04-26 06:56 | 28.40713 | -81.04666 | 10863 ft | 347 kts | 70° |
| 2026-04-26 06:57 | 28.41522 | -81.02089 | 11502 ft | 353 kts | 70° |
| 2026-04-26 06:57 | 28.42361 | -80.99419 | 12241 ft | 357 kts | 70° |
| 2026-04-26 06:57 | 28.43199 | -80.96744 | 12973 ft | 361 kts | 70° |
| 2026-04-26 06:57 | 28.44043 | -80.94047 | 13696 ft | 364 kts | 70° |
| 2026-04-26 06:58 | 28.44899 | -80.91324 | 14325 ft | 368 kts | 69° |
| 2026-04-26 06:58 | 28.45767 | -80.88579 | 14956 ft | 371 kts | 69° |
| 2026-04-26 06:58 | 28.46646 | -80.85805 | 15588 ft | 374 kts | 69° |
| 2026-04-26 06:58 | 28.47492 | -80.82998 | 16207 ft | 378 kts | 73° |
| 2026-04-26 06:59 | 28.47966 | -80.80041 | 16819 ft | 383 kts | 82° |
| 2026-04-26 06:59 | 28.48293 | -80.77024 | 17436 ft | 386 kts | 82° |
| 2026-04-26 06:59 | 28.48626 | -80.73981 | 18041 ft | 390 kts | 81° |
| 2026-04-26 06:59 | 28.48964 | -80.70910 | 18579 ft | 393 kts | 81° |
| 2026-04-26 07:00 | 28.49304 | -80.67846 | 19074 ft | 397 kts | 81° |
| 2026-04-26 07:00 | 28.49652 | -80.64720 | 19583 ft | 401 kts | 81° |
| 2026-04-26 07:00 | 28.50002 | -80.61557 | 20090 ft | 405 kts | 81° |
| 2026-04-26 07:00 | 28.50352 | -80.58366 | 20597 ft | 409 kts | 81° |
| 2026-04-26 07:01 | 28.50707 | -80.55137 | 21101 ft | 413 kts | 81° |
| 2026-04-26 07:01 | 28.51064 | -80.51887 | 21607 ft | 417 kts | 82° |
| 2026-04-26 07:01 | 28.51426 | -80.48603 | 22102 ft | 421 kts | 82° |
| 2026-04-26 07:01 | 28.51794 | -80.45284 | 22593 ft | 425 kts | 82° |
| 2026-04-26 07:02 | 28.52162 | -80.41934 | 23067 ft | 429 kts | 82° |
| 2026-04-26 07:02 | 28.52530 | -80.38557 | 23518 ft | 433 kts | 82° |
| 2026-04-26 07:02 | 28.52901 | -80.35143 | 23902 ft | 436 kts | 82° |
| 2026-04-26 07:02 | 28.53278 | -80.31710 | 24290 ft | 439 kts | 80° |
| 2026-04-26 07:03 | 28.53961 | -80.28321 | 24668 ft | 441 kts | 70° |
| 2026-04-26 07:03 | 28.55087 | -80.25077 | 25040 ft | 442 kts | 64° |
| 2026-04-26 07:03 | 28.56318 | -80.21866 | 25404 ft | 445 kts | 64° |
| 2026-04-26 07:03 | 28.57559 | -80.18624 | 25755 ft | 448 kts | 65° |
| 2026-04-26 07:04 | 28.58802 | -80.15364 | 26099 ft | 451 kts | 65° |
| 2026-04-26 07:04 | 28.60050 | -80.12074 | 26437 ft | 454 kts | 65° |
| 2026-04-26 07:04 | 28.61298 | -80.08763 | 26779 ft | 457 kts | 65° |
| 2026-04-26 07:04 | 28.62553 | -80.05428 | 27110 ft | 460 kts | 65° |
| 2026-04-26 07:05 | 28.63813 | -80.02075 | 27440 ft | 463 kts | 65° |
| 2026-04-26 07:05 | 28.65084 | -79.98696 | 27770 ft | 465 kts | 65° |
| 2026-04-26 07:05 | 28.66364 | -79.95300 | 28087 ft | 468 kts | 65° |
| 2026-04-26 07:05 | 28.67653 | -79.91886 | 28390 ft | 471 kts | 65° |
| 2026-04-26 07:06 | 28.68951 | -79.88445 | 28688 ft | 474 kts | 65° |
| 2026-04-26 07:06 | 28.70256 | -79.84984 | 28992 ft | 477 kts | 65° |
| 2026-04-26 07:06 | 28.71565 | -79.81503 | 29284 ft | 479 kts | 66° |
| 2026-04-26 07:06 | 28.72877 | -79.78000 | 29571 ft | 482 kts | 66° |
| 2026-04-26 07:07 | 28.74195 | -79.74482 | 29850 ft | 484 kts | 66° |
| 2026-04-26 07:07 | 28.75518 | -79.70945 | 30100 ft | 487 kts | 66° |
| 2026-04-26 07:07 | 28.76850 | -79.67384 | 30333 ft | 489 kts | 66° |
| 2026-04-26 07:07 | 28.78185 | -79.63811 | 30570 ft | 491 kts | 66° |
| 2026-04-26 07:08 | 28.79524 | -79.60229 | 30789 ft | 492 kts | 66° |
| 2026-04-26 07:08 | 28.80954 | -79.56684 | 31014 ft | 493 kts | 60° |
| 2026-04-26 07:08 | 28.82786 | -79.53383 | 31239 ft | 492 kts | 52° |
| 2026-04-26 07:08 | 28.84789 | -79.50228 | 31549 ft | 491 kts | 52° |
| 2026-04-26 07:09 | 28.86783 | -79.47068 | 31858 ft | 490 kts | 52° |
| 2026-04-26 07:09 | 28.88767 | -79.43902 | 32176 ft | 489 kts | 52° |
| 2026-04-26 07:09 | 28.90742 | -79.40737 | 32491 ft | 489 kts | 52° |
| 2026-04-26 07:09 | 28.92711 | -79.37582 | 32802 ft | 488 kts | 52° |
| 2026-04-26 07:10 | 28.98621 | -79.28154 | 33719 ft | 486 kts | 52° |
| 2026-04-26 07:11 | 29.02552 | -79.21880 | 34284 ft | 485 kts | 52° |
| 2026-04-26 07:11 | 29.04505 | -79.18752 | 34556 ft | 484 kts | 52° |
| 2026-04-26 07:11 | 29.06455 | -79.15621 | 34824 ft | 483 kts | 52° |
| 2026-04-26 07:11 | 29.08398 | -79.12499 | 35086 ft | 482 kts | 52° |
| 2026-04-26 07:12 | 29.10339 | -79.09383 | 35337 ft | 481 kts | 52° |
| 2026-04-26 07:12 | 29.12279 | -79.06272 | 35581 ft | 480 kts | 52° |
| 2026-04-26 07:12 | 29.14214 | -79.03163 | 35820 ft | 479 kts | 52° |
| 2026-04-26 07:12 | 29.16143 | -79.00063 | 36053 ft | 478 kts | 52° |
| 2026-04-26 07:13 | 29.18067 | -78.96962 | 36274 ft | 477 kts | 52° |
| 2026-04-26 07:13 | 29.19990 | -78.93863 | 36485 ft | 477 kts | 52° |
| 2026-04-26 07:13 | 29.21906 | -78.90772 | 36690 ft | 476 kts | 53° |
| 2026-04-26 07:13 | 29.23819 | -78.87688 | 36889 ft | 476 kts | 53° |
| 2026-04-26 07:14 | 29.25738 | -78.84596 | 36947 ft | 475 kts | 53° |
| 2026-04-26 07:14 | 29.29556 | -78.78432 | 36946 ft | 474 kts | 53° |
| 2026-04-26 07:15 | 29.33357 | -78.72274 | 36950 ft | 474 kts | 53° |
| 2026-04-26 07:15 | 29.36834 | -78.65863 | 36951 ft | 475 kts | 65° |
| 2026-04-26 07:16 | 29.39071 | -78.58723 | 36947 ft | 476 kts | 71° |
| 2026-04-26 07:16 | 29.40545 | -78.51346 | 36951 ft | 476 kts | 82° |
| 2026-04-26 07:17 | 29.41517 | -78.43831 | 36956 ft | 476 kts | 82° |
| 2026-04-26 07:17 | 29.42484 | -78.36320 | 36961 ft | 477 kts | 82° |
| 2026-04-26 07:18 | 29.43432 | -78.28833 | 36960 ft | 477 kts | 82° |
| 2026-04-26 07:18 | 29.44386 | -78.21305 | 36966 ft | 477 kts | 82° |
| 2026-04-26 07:19 | 29.45342 | -78.13765 | 36975 ft | 477 kts | 82° |
| 2026-04-26 07:19 | 29.46283 | -78.06232 | 36976 ft | 477 kts | 82° |
| 2026-04-26 07:20 | 29.47224 | -77.98691 | 36971 ft | 477 kts | 82° |
| 2026-04-26 07:20 | 29.48165 | -77.91152 | 36976 ft | 477 kts | 82° |
| 2026-04-26 07:21 | 29.49104 | -77.83609 | 36979 ft | 477 kts | 82° |
| 2026-04-26 07:21 | 29.50033 | -77.76076 | 36978 ft | 477 kts | 82° |
| 2026-04-26 07:22 | 29.50951 | -77.68537 | 36979 ft | 477 kts | 82° |
| 2026-04-26 07:22 | 29.51869 | -77.60995 | 36985 ft | 477 kts | 82° |
| 2026-04-26 07:23 | 29.52785 | -77.53464 | 36983 ft | 476 kts | 82° |
| 2026-04-26 07:23 | 29.53706 | -77.45931 | 36988 ft | 476 kts | 82° |
| 2026-04-26 07:24 | 29.54612 | -77.38400 | 36983 ft | 476 kts | 82° |
| 2026-04-26 07:24 | 29.55504 | -77.30882 | 36985 ft | 475 kts | 82° |
| 2026-04-26 07:25 | 29.56400 | -77.23359 | 36988 ft | 475 kts | 82° |
| 2026-04-26 07:25 | 29.57290 | -77.15848 | 36984 ft | 474 kts | 82° |
| 2026-04-26 07:26 | 29.58174 | -77.08339 | 36987 ft | 474 kts | 82° |
| 2026-04-26 07:26 | 29.59052 | -77.00835 | 36979 ft | 473 kts | 82° |
| 2026-04-26 07:27 | 29.59931 | -76.93350 | 36981 ft | 473 kts | 81° |
| 2026-04-26 07:27 | 29.61843 | -76.86171 | 36979 ft | 469 kts | 61° |
| 2026-04-26 07:28 | 29.65525 | -76.80089 | 36978 ft | 463 kts | 46° |
| 2026-04-26 07:28 | 29.69758 | -76.74499 | 36986 ft | 463 kts | 47° |
| 2026-04-26 07:29 | 29.73968 | -76.68878 | 36981 ft | 463 kts | 47° |
| 2026-04-26 07:29 | 29.78167 | -76.63251 | 36983 ft | 463 kts | 47° |
| 2026-04-26 07:30 | 29.82374 | -76.57634 | 36981 ft | 463 kts | 47° |
| 2026-04-26 07:30 | 29.86581 | -76.52013 | 36981 ft | 463 kts | 47° |
| 2026-04-26 07:31 | 29.90786 | -76.46391 | 36984 ft | 463 kts | 46° |
| 2026-04-26 07:31 | 29.94986 | -76.40765 | 36989 ft | 463 kts | 47° |
| 2026-04-26 07:32 | 29.99175 | -76.35135 | 36988 ft | 463 kts | 46° |
| 2026-04-26 07:32 | 30.03363 | -76.29504 | 36987 ft | 462 kts | 46° |
| 2026-04-26 07:33 | 30.07553 | -76.23870 | 36987 ft | 462 kts | 46° |
| 2026-04-26 07:33 | 30.11744 | -76.18235 | 36986 ft | 462 kts | 47° |
| 2026-04-26 07:34 | 30.15919 | -76.12594 | 36986 ft | 462 kts | 47° |
| 2026-04-26 07:34 | 30.20088 | -76.06952 | 36988 ft | 461 kts | 47° |
| 2026-04-26 07:35 | 30.24258 | -76.01302 | 36987 ft | 461 kts | 47° |
| 2026-04-26 07:35 | 30.28422 | -75.95661 | 36987 ft | 461 kts | 47° |
| 2026-04-26 07:36 | 30.32582 | -75.90014 | 36987 ft | 461 kts | 46° |
| 2026-04-26 07:36 | 30.36036 | -75.85326 | 36988 ft | 460 kts | 47° |
| 2026-04-26 07:37 | 30.40183 | -75.79677 | 36983 ft | 460 kts | 47° |
| 2026-04-26 07:37 | 30.44328 | -75.74019 | 36988 ft | 460 kts | 47° |
| 2026-04-26 07:38 | 30.48475 | -75.68359 | 36984 ft | 461 kts | 47° |
| 2026-04-26 07:38 | 30.52623 | -75.62691 | 36990 ft | 461 kts | 47° |
| 2026-04-26 07:39 | 30.56770 | -75.57021 | 36991 ft | 461 kts | 47° |
| 2026-04-26 07:39 | 30.60913 | -75.51351 | 36993 ft | 461 kts | 47° |
| 2026-04-26 07:40 | 30.65053 | -75.45670 | 36996 ft | 461 kts | 47° |
| 2026-04-26 07:40 | 30.69184 | -75.39986 | 36996 ft | 461 kts | 47° |
| 2026-04-26 07:41 | 30.73317 | -75.34279 | 36998 ft | 461 kts | 47° |
| 2026-04-26 07:41 | 30.77440 | -75.28587 | 37001 ft | 460 kts | 47° |
| 2026-04-26 07:42 | 30.81575 | -75.22897 | 36995 ft | 460 kts | 47° |
| 2026-04-26 07:42 | 30.85668 | -75.17240 | 36997 ft | 460 kts | 47° |
| 2026-04-26 07:43 | 30.89777 | -75.11530 | 36996 ft | 460 kts | 47° |
| 2026-04-26 07:43 | 30.93899 | -75.05817 | 36995 ft | 461 kts | 47° |
| 2026-04-26 07:44 | 30.98021 | -75.00092 | 36996 ft | 461 kts | 47° |
| 2026-04-26 07:44 | 31.02137 | -74.94359 | 36998 ft | 461 kts | 48° |
| 2026-04-26 07:45 | 31.06248 | -74.88631 | 36996 ft | 460 kts | 48° |
| 2026-04-26 07:45 | 31.10358 | -74.82901 | 37001 ft | 460 kts | 48° |
| 2026-04-26 07:46 | 31.14474 | -74.77165 | 37006 ft | 461 kts | 48° |
| 2026-04-26 07:46 | 31.18585 | -74.71412 | 37006 ft | 461 kts | 48° |
| 2026-04-26 07:47 | 31.22683 | -74.65661 | 37001 ft | 461 kts | 48° |
| 2026-04-26 07:47 | 31.26784 | -74.59896 | 37004 ft | 461 kts | 48° |
| 2026-04-26 07:48 | 31.30878 | -74.54139 | 37002 ft | 461 kts | 48° |
| 2026-04-26 07:48 | 31.34980 | -74.48365 | 37007 ft | 461 kts | 48° |
| 2026-04-26 07:49 | 31.39074 | -74.42595 | 37011 ft | 461 kts | 48° |
| 2026-04-26 07:49 | 31.43170 | -74.36811 | 37011 ft | 461 kts | 49° |
| 2026-04-26 07:50 | 31.49306 | -74.28128 | 37009 ft | 461 kts | 49° |
| 2026-04-26 07:50 | 31.53390 | -74.22330 | 37008 ft | 461 kts | 49° |
| 2026-04-26 07:51 | 31.57480 | -74.16534 | 37011 ft | 461 kts | 49° |
| 2026-04-26 07:51 | 31.61574 | -74.10737 | 37012 ft | 461 kts | 49° |
| 2026-04-26 07:52 | 31.65659 | -74.04927 | 37010 ft | 461 kts | 49° |
| 2026-04-26 07:52 | 31.69731 | -73.99112 | 37009 ft | 461 kts | 49° |
| 2026-04-26 07:53 | 31.73801 | -73.93286 | 37007 ft | 461 kts | 49° |
| 2026-04-26 07:53 | 31.77772 | -73.87364 | 36999 ft | 463 kts | 56° |
| 2026-04-26 07:54 | 31.80348 | -73.80450 | 37001 ft | 464 kts | 76° |
| 2026-04-26 07:54 | 31.81399 | -73.72965 | 37000 ft | 464 kts | 81° |
| 2026-04-26 07:55 | 31.82351 | -73.65454 | 37000 ft | 464 kts | 81° |
| 2026-04-26 07:55 | 31.83298 | -73.57941 | 37002 ft | 465 kts | 81° |
| 2026-04-26 07:56 | 31.84253 | -73.50419 | 37008 ft | 465 kts | 81° |
| 2026-04-26 07:56 | 31.85190 | -73.42902 | 37014 ft | 465 kts | 82° |
| 2026-04-26 07:57 | 31.86108 | -73.35427 | 37015 ft | 465 kts | 82° |
| 2026-04-26 07:57 | 31.87030 | -73.27904 | 37020 ft | 465 kts | 82° |
| 2026-04-26 07:58 | 31.87956 | -73.20337 | 37024 ft | 465 kts | 82° |
| 2026-04-26 07:58 | 31.88881 | -73.12812 | 37026 ft | 465 kts | 82° |
| 2026-04-26 07:59 | 31.89787 | -73.05335 | 37024 ft | 464 kts | 82° |
| 2026-04-26 07:59 | 31.90690 | -72.97810 | 37020 ft | 464 kts | 82° |
| 2026-04-26 08:00 | 31.91596 | -72.90290 | 37023 ft | 464 kts | 82° |
| 2026-04-26 08:00 | 31.92501 | -72.82768 | 37022 ft | 464 kts | 82° |
| 2026-04-26 08:01 | 31.93389 | -72.75245 | 37022 ft | 464 kts | 82° |
| 2026-04-26 08:01 | 31.94288 | -72.67665 | 37019 ft | 464 kts | 82° |
| 2026-04-26 08:02 | 31.95179 | -72.60137 | 37016 ft | 464 kts | 82° |
| 2026-04-26 08:02 | 31.96057 | -72.52659 | 37016 ft | 464 kts | 82° |
| 2026-04-26 08:03 | 31.96928 | -72.45111 | 37018 ft | 465 kts | 82° |
| 2026-04-26 08:03 | 31.97804 | -72.37564 | 37012 ft | 465 kts | 82° |
| 2026-04-26 08:04 | 31.98674 | -72.29999 | 37018 ft | 466 kts | 82° |
| 2026-04-26 08:04 | 31.99543 | -72.22436 | 37033 ft | 466 kts | 82° |
| 2026-04-26 08:05 | 32.00410 | -72.14880 | 37030 ft | 466 kts | 82° |
| 2026-04-26 08:05 | 32.01267 | -72.07310 | 37033 ft | 466 kts | 82° |
| 2026-04-26 08:06 | 32.02121 | -71.99743 | 37036 ft | 466 kts | 82° |
| 2026-04-26 08:06 | 32.02974 | -71.92173 | 37035 ft | 466 kts | 82° |
| 2026-04-26 08:07 | 32.03818 | -71.84614 | 37034 ft | 466 kts | 82° |
| 2026-04-26 08:07 | 32.04657 | -71.77043 | 37034 ft | 465 kts | 83° |
| 2026-04-26 08:08 | 32.05440 | -71.69469 | 37038 ft | 465 kts | 83° |
| 2026-04-26 08:08 | 32.06194 | -71.61901 | 37037 ft | 465 kts | 83° |
| 2026-04-26 08:09 | 32.06945 | -71.54328 | 37034 ft | 465 kts | 83° |
| 2026-04-26 08:09 | 32.07701 | -71.46753 | 37035 ft | 465 kts | 83° |
| 2026-04-26 08:10 | 32.08457 | -71.39187 | 37038 ft | 464 kts | 83° |
| 2026-04-26 08:10 | 32.09207 | -71.31627 | 37038 ft | 464 kts | 83° |
| 2026-04-26 08:11 | 32.09944 | -71.24062 | 37038 ft | 464 kts | 83° |
| 2026-04-26 08:11 | 32.10678 | -71.16505 | 37036 ft | 464 kts | 83° |
| 2026-04-26 08:12 | 32.11412 | -71.08940 | 37037 ft | 464 kts | 83° |
| 2026-04-26 08:12 | 32.12143 | -71.01387 | 37035 ft | 463 kts | 83° |
| 2026-04-26 08:13 | 32.12875 | -70.93836 | 37034 ft | 463 kts | 83° |
| 2026-04-26 08:13 | 32.13595 | -70.86289 | 37034 ft | 463 kts | 83° |
| 2026-04-26 08:14 | 32.14304 | -70.78737 | 37033 ft | 463 kts | 84° |
| 2026-04-26 08:14 | 32.15011 | -70.71191 | 37034 ft | 463 kts | 83° |
| 2026-04-26 08:15 | 32.15713 | -70.63648 | 37034 ft | 462 kts | 84° |
| 2026-04-26 08:15 | 32.16408 | -70.56102 | 37035 ft | 462 kts | 84° |
| 2026-04-26 08:16 | 32.17111 | -70.48555 | 37035 ft | 462 kts | 83° |
| 2026-04-26 08:16 | 32.17802 | -70.41016 | 37034 ft | 462 kts | 84° |
| 2026-04-26 08:17 | 32.18478 | -70.33523 | 37034 ft | 462 kts | 84° |
| 2026-04-26 08:17 | 32.19163 | -70.25983 | 37036 ft | 462 kts | 84° |
| 2026-04-26 08:18 | 32.19839 | -70.18444 | 37036 ft | 462 kts | 84° |
| 2026-04-26 08:18 | 32.20507 | -70.10899 | 37037 ft | 462 kts | 84° |
| 2026-04-26 08:19 | 32.21066 | -70.04580 | 37035 ft | 462 kts | 84° |
| 2026-04-26 08:19 | 32.21731 | -69.97028 | 37035 ft | 462 kts | 84° |
| 2026-04-26 08:20 | 32.22396 | -69.89487 | 37038 ft | 462 kts | 84° |
| 2026-04-26 08:20 | 32.23052 | -69.81935 | 37041 ft | 462 kts | 84° |
| 2026-04-26 08:21 | 32.23698 | -69.74378 | 37041 ft | 462 kts | 84° |
| 2026-04-26 08:21 | 32.24340 | -69.66817 | 37041 ft | 463 kts | 84° |
| 2026-04-26 08:22 | 32.24984 | -69.59258 | 37042 ft | 463 kts | 84° |
| 2026-04-26 08:22 | 32.25622 | -69.51698 | 37043 ft | 463 kts | 84° |
| 2026-04-26 08:23 | 32.26256 | -69.44124 | 37046 ft | 463 kts | 84° |
| 2026-04-26 08:23 | 32.26888 | -69.36553 | 37052 ft | 463 kts | 84° |
| 2026-04-26 08:24 | 32.27512 | -69.28979 | 37047 ft | 463 kts | 84° |
| 2026-04-26 08:24 | 32.28134 | -69.21396 | 37052 ft | 463 kts | 84° |
| 2026-04-26 08:25 | 32.28749 | -69.13819 | 37052 ft | 463 kts | 84° |
| 2026-04-26 08:25 | 32.29360 | -69.06230 | 37053 ft | 464 kts | 84° |
| 2026-04-26 08:26 | 32.29973 | -68.98645 | 37056 ft | 464 kts | 84° |
| 2026-04-26 08:26 | 32.30570 | -68.91115 | 37058 ft | 464 kts | 84° |
| 2026-04-26 08:27 | 32.31167 | -68.83519 | 37058 ft | 464 kts | 84° |
| 2026-04-26 08:27 | 32.31759 | -68.75924 | 37064 ft | 464 kts | 84° |
| 2026-04-26 08:28 | 32.32357 | -68.68281 | 37063 ft | 464 kts | 84° |
| 2026-04-26 08:28 | 32.32941 | -68.60723 | 37063 ft | 464 kts | 84° |
| 2026-04-26 08:29 | 32.33514 | -68.53131 | 37064 ft | 464 kts | 84° |
| 2026-04-26 08:29 | 32.34088 | -68.45526 | 37064 ft | 464 kts | 84° |
| 2026-04-26 08:30 | 32.34663 | -68.37925 | 37064 ft | 464 kts | 84° |
| 2026-04-26 08:30 | 32.35230 | -68.30321 | 37063 ft | 464 kts | 84° |
| 2026-04-26 08:31 | 32.35669 | -68.22712 | 37059 ft | 464 kts | 91° |
| 2026-04-26 08:31 | 32.35121 | -68.15121 | 37052 ft | 464 kts | 95° |
| 2026-04-26 08:32 | 32.34506 | -68.07536 | 37059 ft | 464 kts | 95° |
| 2026-04-26 08:32 | 32.33890 | -67.99931 | 37064 ft | 464 kts | 95° |
| 2026-04-26 08:33 | 32.33277 | -67.92324 | 37066 ft | 465 kts | 95° |
| 2026-04-26 08:33 | 32.32647 | -67.84721 | 37069 ft | 464 kts | 96° |
| 2026-04-26 08:34 | 32.32014 | -67.77123 | 37071 ft | 464 kts | 95° |
| 2026-04-26 08:34 | 32.31382 | -67.69528 | 37072 ft | 464 kts | 96° |
| 2026-04-26 08:35 | 32.30737 | -67.61927 | 37073 ft | 464 kts | 95° |
| 2026-04-26 08:35 | 32.30104 | -67.54335 | 37071 ft | 464 kts | 95° |
| 2026-04-26 08:36 | 32.29458 | -67.46737 | 37074 ft | 464 kts | 95° |
| 2026-04-26 08:36 | 32.28803 | -67.39148 | 37071 ft | 464 kts | 96° |
| 2026-04-26 08:37 | 32.28144 | -67.31563 | 37073 ft | 464 kts | 96° |
| 2026-04-26 08:37 | 32.27486 | -67.23969 | 37073 ft | 464 kts | 96° |
| 2026-04-26 08:38 | 32.26821 | -67.16385 | 37074 ft | 464 kts | 96° |
| 2026-04-26 08:38 | 32.26150 | -67.08801 | 37071 ft | 464 kts | 96° |
| 2026-04-26 08:39 | 32.25479 | -67.01204 | 36853 ft | 465 kts | 96° |
| 2026-04-26 08:39 | 32.25138 | -66.97407 | 36597 ft | 464 kts | 96° |
| 2026-04-26 08:39 | 32.24793 | -66.93618 | 36233 ft | 464 kts | 96° |
| 2026-04-26 08:40 | 32.24447 | -66.89814 | 35397 ft | 467 kts | 96° |
| 2026-04-26 08:40 | 32.24099 | -66.85990 | 34560 ft | 470 kts | 96° |
| 2026-04-26 08:40 | 32.23750 | -66.82151 | 33922 ft | 468 kts | 96° |
| 2026-04-26 08:40 | 32.23407 | -66.78350 | 33340 ft | 463 kts | 96° |
| 2026-04-26 08:41 | 32.23071 | -66.74636 | 32773 ft | 458 kts | 96° |
| 2026-04-26 08:41 | 32.22731 | -66.70910 | 32198 ft | 454 kts | 96° |
| 2026-04-26 08:41 | 32.22390 | -66.67209 | 31638 ft | 451 kts | 96° |
| 2026-04-26 08:41 | 32.22051 | -66.63547 | 31081 ft | 447 kts | 96° |
| 2026-04-26 08:42 | 32.21715 | -66.59911 | 30537 ft | 444 kts | 96° |
| 2026-04-26 08:42 | 32.21379 | -66.56296 | 29963 ft | 441 kts | 96° |
| 2026-04-26 08:42 | 32.21041 | -66.52707 | 29408 ft | 437 kts | 96° |
| 2026-04-26 08:42 | 32.20707 | -66.49163 | 28885 ft | 432 kts | 96° |
| 2026-04-26 08:43 | 32.20377 | -66.45650 | 28372 ft | 428 kts | 96° |
| 2026-04-26 08:43 | 32.20049 | -66.42173 | 27864 ft | 424 kts | 96° |
| 2026-04-26 08:43 | 32.19723 | -66.38736 | 27380 ft | 420 kts | 96° |
| 2026-04-26 08:43 | 32.19391 | -66.35325 | 26897 ft | 416 kts | 97° |
| 2026-04-26 08:44 | 32.19051 | -66.31943 | 26426 ft | 413 kts | 97° |
| 2026-04-26 08:44 | 32.18713 | -66.28592 | 25962 ft | 410 kts | 97° |
| 2026-04-26 08:44 | 32.18376 | -66.25262 | 25500 ft | 407 kts | 97° |
| 2026-04-26 08:44 | 32.18042 | -66.21953 | 25029 ft | 405 kts | 97° |
| 2026-04-26 08:45 | 32.17707 | -66.18659 | 24567 ft | 403 kts | 97° |
| 2026-04-26 08:45 | 32.17372 | -66.15386 | 24098 ft | 401 kts | 97° |
| 2026-04-26 08:45 | 32.17035 | -66.12120 | 23611 ft | 400 kts | 97° |
| 2026-04-26 08:45 | 32.16701 | -66.08871 | 23079 ft | 398 kts | 97° |
| 2026-04-26 08:46 | 32.16372 | -66.05646 | 22594 ft | 395 kts | 97° |
| 2026-04-26 08:46 | 32.16046 | -66.02438 | 22113 ft | 392 kts | 97° |
| 2026-04-26 08:46 | 32.15723 | -65.99252 | 21631 ft | 390 kts | 97° |
| 2026-04-26 08:46 | 32.15400 | -65.96082 | 21151 ft | 388 kts | 97° |
| 2026-04-26 08:47 | 32.15077 | -65.92929 | 20667 ft | 386 kts | 97° |
| 2026-04-26 08:47 | 32.14752 | -65.89790 | 20187 ft | 385 kts | 98° |
| 2026-04-26 08:47 | 32.14425 | -65.86658 | 19713 ft | 384 kts | 98° |
| 2026-04-26 08:47 | 32.14099 | -65.83536 | 19231 ft | 383 kts | 98° |
| 2026-04-26 08:48 | 32.13776 | -65.80416 | 18760 ft | 382 kts | 98° |
| 2026-04-26 08:48 | 32.13453 | -65.77303 | 18268 ft | 382 kts | 98° |
| 2026-04-26 08:48 | 32.13129 | -65.74199 | 17767 ft | 380 kts | 98° |
| 2026-04-26 08:48 | 32.12805 | -65.71114 | 17306 ft | 378 kts | 98° |
| 2026-04-26 08:49 | 32.12483 | -65.68056 | 16852 ft | 375 kts | 98° |
| 2026-04-26 08:49 | 32.12392 | -65.64994 | 16394 ft | 373 kts | 85° |
| 2026-04-26 08:49 | 32.12887 | -65.62004 | 15943 ft | 371 kts | 72° |
| 2026-04-26 08:49 | 32.13931 | -65.59239 | 15503 ft | 368 kts | 61° |
| 2026-04-26 08:50 | 32.15155 | -65.56597 | 15051 ft | 366 kts | 61° |
| 2026-04-26 08:50 | 32.16369 | -65.53969 | 14613 ft | 364 kts | 61° |
| 2026-04-26 08:50 | 32.17571 | -65.51354 | 14246 ft | 360 kts | 61° |
| 2026-04-26 08:50 | 32.18760 | -65.48756 | 13808 ft | 357 kts | 62° |
| 2026-04-26 08:51 | 32.21103 | -65.43633 | 12839 ft | 353 kts | 61° |
| 2026-04-26 08:51 | 32.22262 | -65.41107 | 12396 ft | 349 kts | 61° |
| 2026-04-26 08:51 | 32.23412 | -65.38599 | 11961 ft | 345 kts | 61° |
| 2026-04-26 08:52 | 32.24552 | -65.36109 | 11481 ft | 343 kts | 61° |
| 2026-04-26 08:52 | 32.25682 | -65.33641 | 11042 ft | 340 kts | 61° |
| 2026-04-26 08:52 | 32.26800 | -65.31193 | 10585 ft | 337 kts | 60° |
| 2026-04-26 08:52 | 32.27904 | -65.28776 | 10151 ft | 328 kts | 60° |
| 2026-04-26 08:53 | 32.28944 | -65.26496 | 9961 ft | 305 kts | 60° |
| 2026-04-26 08:53 | 32.29930 | -65.24328 | 9455 ft | 295 kts | 60° |
| 2026-04-26 08:53 | 32.30890 | -65.22220 | 9322 ft | 292 kts | 60° |
| 2026-04-26 08:53 | 32.31856 | -65.20103 | 9022 ft | 292 kts | 60° |
| 2026-04-26 08:54 | 32.32819 | -65.17995 | 8646 ft | 290 kts | 60° |
| 2026-04-26 08:54 | 32.33779 | -65.15891 | 8266 ft | 290 kts | 60° |
| 2026-04-26 08:54 | 32.34735 | -65.13797 | 7882 ft | 288 kts | 60° |
| 2026-04-26 08:54 | 32.35683 | -65.11715 | 7490 ft | 287 kts | 60° |
| 2026-04-26 08:55 | 32.36623 | -65.09642 | 7125 ft | 285 kts | 60° |
| 2026-04-26 08:55 | 32.37554 | -65.07585 | 6739 ft | 279 kts | 59° |
| 2026-04-26 08:55 | 32.38447 | -65.05609 | 6383 ft | 266 kts | 59° |
| 2026-04-26 08:55 | 32.39295 | -65.03727 | 6026 ft | 253 kts | 59° |
| 2026-04-26 08:56 | 32.40094 | -65.01954 | 5700 ft | 241 kts | 59° |
| 2026-04-26 08:56 | 32.40620 | -65.00791 | 5489 ft | 233 kts | 59° |
| 2026-04-26 08:56 | 32.41375 | -64.98485 | 5089 ft | 224 kts | 80° |
| 2026-04-26 08:56 | 32.41353 | -64.96678 | 4804 ft | 217 kts | 100° |
| 2026-04-26 08:57 | 32.41055 | -64.94962 | 4502 ft | 210 kts | 100° |
| 2026-04-26 08:57 | 32.40770 | -64.93281 | 4222 ft | 207 kts | 100° |
| 2026-04-26 08:57 | 32.40490 | -64.91615 | 3949 ft | 205 kts | 100° |
| 2026-04-26 08:57 | 32.40213 | -64.89965 | 3677 ft | 204 kts | 101° |
| 2026-04-26 08:58 | 32.39936 | -64.88322 | 3414 ft | 203 kts | 101° |
| 2026-04-26 08:58 | 32.39660 | -64.86699 | 3170 ft | 199 kts | 101° |
| 2026-04-26 08:58 | 32.39386 | -64.85102 | 2869 ft | 196 kts | 101° |
| 2026-04-26 08:58 | 32.39118 | -64.83539 | 2601 ft | 190 kts | 102° |
| 2026-04-26 08:59 | 32.38863 | -64.82050 | 2362 ft | 179 kts | 101° |
| 2026-04-26 08:59 | 32.38624 | -64.80655 | 2133 ft | 168 kts | 101° |
| 2026-04-26 08:59 | 32.38400 | -64.79351 | 1906 ft | 156 kts | 101° |
| 2026-04-26 08:59 | 32.38191 | -64.78149 | 1777 ft | 143 kts | 101° |
| 2026-04-26 09:00 | 32.38058 | -64.77384 | 1716 ft | 141 kts | 101° |
| 2026-04-26 09:00 | 32.37860 | -64.76257 | 1431 ft | 138 kts | 102° |
| 2026-04-26 09:00 | 32.37670 | -64.75167 | 1202 ft | 134 kts | 102° |
| 2026-04-26 09:00 | 32.37482 | -64.74089 | 990 ft | 133 kts | 101° |
| 2026-04-26 09:01 | 32.37297 | -64.73020 | 792 ft | 132 kts | 101° |
| 2026-04-26 09:01 | 32.37104 | -64.71956 | 594 ft | 132 kts | 102° |
| 2026-04-26 09:01 | 32.36908 | -64.70888 | 362 ft | 133 kts | 101° |
| 2026-04-26 09:01 | 32.36726 | -64.69823 | 168 ft | 132 kts | 98° |
| 2026-04-26 09:02 | 32.36556 | -64.68773 | 30 ft | 122 kts | 99° |
| 2026-04-26 09:02 | 32.36424 | -64.67970 | 27 ft | 74 kts | 101° |
| 2026-04-26 09:02 | 32.36352 | -64.67536 | 25 ft | 44 kts | 101° |
| 2026-04-26 09:02 | 32.36300 | -64.67238 | 28 ft | 30 kts | 100° |
| 2026-04-26 09:03 | 32.36317 | -64.67033 | 28 ft | 22 kts | 66° |
| 2026-04-26 09:03 | 32.36337 | -64.66975 | 28 ft | 0 kts | 66° |
| 2026-04-26 09:04 | 32.36342 | -64.66961 | 28 ft | 3 kts | 70° |
| 2026-04-26 09:04 | 32.36355 | -64.66935 | 28 ft | 7 kts | 52° |
| 2026-04-26 09:04 | 32.36370 | -64.66850 | 28 ft | 10 kts | 94° |
| 2026-04-26 09:05 | 32.36417 | -64.66799 | 27 ft | 10 kts | 349° |
| 2026-04-26 09:05 | 32.36445 | -64.66863 | 27 ft | 6 kts | 283° |
| 2026-04-26 09:05 | 32.36471 | -64.66892 | 27 ft | 5 kts | 344° |
| 2026-04-26 09:05 | 32.36478 | -64.66891 | 27 ft | 0 kts | 4° |
| 2026-04-26 09:06 | 32.36483 | -64.66890 | 27 ft | 1 kts | 9° |
| 2026-04-26 09:06 | 32.36489 | -64.66888 | 27 ft | 0 kts | 14° |